Карточка аэропорта UAKK

Внимание!
Информация на этой странице в стадии наполнения.
Если вы не увидели какой-то информации, или заметили неточность - пожалуйста сообщите нам!
Спасибо!
Команда RU-STAFF
Название аэропортаКараганда
Название аэропорта (англ.)Karaganda
Превышение1768 ft. (538.9 m.)
Координаты49°40.302', 73°20.118'
Высота перехода10000ft
Эшелон переходаFL120, QNH<733:FL130
Коды ответчика0630-0637, 7220-7227
Зона ОрВДАстана РПИ (UACN)
Данные METARUAKK 160500Z 25007MPS 220V290 CAVOK 25/15 Q1006 NOSIG RMK QFE708/0944
Проноз погоды (TAF)UAKK 152302Z 1600/1624 18005MPS 9999 SCT040 BKN100 TX25/1609Z TN16/1618Z TEMPO 1600/1604 22005MPS 5000 BR SCT040CB BECMG 1604/1606 SCT030CB TEMPO 1606/1616 VRB13MPS 3100 -TSRA SQ BKN030CB BECMG 1616/1618 SCT040 SCT100 TEMPO 1616/1624 VRB01MPS 5000 BR SCT030CB
NOTAMshow/hide NOTAM
AWOS   TABLE

Информация о ВПП

ВПП Длина ВПП (м.) Покрытие Курс ВПП Частота ILS
053601Железобетон50109.9
233601Железобетон230111.7

Диспетчерские позиции




Спутниковое изображение